Time;durP1;ratioP1;P1;durP2;ratioP2;P2;SDS_P1;SDS_P2;PMS_P1;PMS_P2;Temp;Humidity;BMP_temperature;BMP_pressure;BME280_temperature;BME280_humidity;BME280_pressure;Samples;Min_cycle;Max_cycle;Signal;HPM_P1;HPM_P2
2022/06/17 12:57:50;;;;;;;9.38;2.20;;;;;;;21.16;41.41;99348.31;1524508;74;22778;-72
2022/06/17 13:00:09;;;;;;;5.37;1.72;;;;;;;21.01;41.60;99347.80;1501367;77;21038;-72
2022/06/17 13:02:21;;;;;;;1.73;1.63;;;;;;;20.92;41.68;99347.24;1497923;77;20967;-71
2022/06/17 13:04:34;;;;;;;2.02;1.85;;;;;;;20.90;41.88;99348.72;1461748;77;150409;-70
2022/06/17 13:06:57;;;;;;;1.87;1.77;;;;;;;20.94;41.98;99337.26;1440614;80;21252;-70
2022/06/17 13:09:23;;;;;;;3.05;1.60;;;;;;;20.96;42.04;99335.78;1433696;80;21060;-70
2022/06/17 13:11:36;;;;;;;1.87;1.50;;;;;;;20.98;42.16;99341.88;1434520;81;21072;-70
2022/06/17 13:13:58;;;;;;;1.87;1.20;;;;;;;21.06;42.33;99331.34;1438277;80;22385;-71
2022/06/17 13:16:14;;;;;;;4.60;1.20;;;;;;;21.15;42.17;99329.69;1434035;81;20980;-71
2022/06/17 13:18:50;;;;;;;6.03;1.30;;;;;;;21.16;42.25;99328.22;1432742;81;21065;-71
2022/06/17 13:21:06;;;;;;;2.52;1.00;;;;;;;21.21;42.10;99331.35;1382366;83;21080;-71
2022/06/17 13:23:26;;;;;;;3.05;1.20;;;;;;;21.32;42.11;99336.25;1379466;84;21147;-71
2022/06/17 13:25:37;;;;;;;2.95;1.37;;;;;;;21.32;42.04;99335.75;1374739;85;21539;-72
2022/06/17 13:27:44;;;;;;;1.98;0.90;;;;;;;21.21;41.96;99337.19;1435209;80;21078;-73
2022/06/17 13:30:04;;;;;;;1.60;1.10;;;;;;;21.16;42.12;99338.94;1432445;80;21030;-73
2022/06/17 13:32:09;;;;;;;2.30;1.10;;;;;;;21.18;42.03;99339.64;1434847;81;21118;-72
2022/06/17 13:34:16;;;;;;;3.42;0.98;;;;;;;21.17;41.80;99348.69;1406288;83;21061;-72
2022/06/17 13:36:21;;;;;;;2.02;1.05;;;;;;;21.16;41.67;99340.28;1375974;85;21056;-71
2022/06/17 13:38:32;;;;;;;1.90;1.17;;;;;;;21.19;41.59;99338.66;1376433;84;21131;-71
2022/06/17 13:40:53;;;;;;;;;;;;;;;21.20;41.82;99344.39;1377196;85;21094;-72
2022/06/17 13:42:58;;;;;;;1.85;1.20;;;;;;;21.20;41.57;99344.39;1434160;81;21107;-70
2022/06/17 13:45:21;;;;;;;0.78;0.78;;;;;;;21.20;41.61;99342.22;1434712;80;21039;-72
2022/06/17 13:47:42;;;;;;;2.50;0.90;;;;;;;21.19;41.66;99345.37;1454063;80;21219;-72
2022/06/17 13:50:02;;;;;;;2.58;0.70;;;;;;;21.17;41.36;99341.98;1461048;80;20999;-71
2022/06/17 13:52:13;;;;;;;6.58;0.98;;;;;;;21.16;40.88;99342.95;1460877;78;21034;-72
2022/06/17 13:54:20;;;;;;;0.82;0.82;;;;;;;21.15;40.42;99338.57;1401053;82;21138;-71
2022/06/17 13:56:50;;;;;;;1.87;0.70;;;;;;;21.15;40.70;99337.23;1403929;83;21198;-72
2022/06/17 13:58:53;;;;;;;;;;;;;;;21.19;40.91;99345.37;1416762;82;20969;-71
2022/06/17 14:00:58;;;;;;;1.47;0.70;;;;;;;21.23;41.06;99345.45;1459284;79;20536;-71
2022/06/17 14:03:02;;;;;;;7.20;0.90;;;;;;;21.28;41.17;99348.23;1468205;79;21065;-72
2022/06/17 14:05:10;;;;;;;1.77;1.00;;;;;;;21.30;41.12;99342.26;1469269;79;21012;-72
2022/06/17 14:07:11;;;;;;;5.10;1.10;;;;;;;21.29;41.13;99343.23;1468176;79;21501;-72
2022/06/17 14:09:35;;;;;;;9.58;0.95;;;;;;;21.30;41.32;99342.26;1467791;79;21142;-72
2022/06/17 14:11:41;;;;;;;2.50;1.30;;;;;;;21.33;41.37;99341.98;1467753;79;21009;-72
2022/06/17 14:13:43;;;;;;;3.27;1.15;;;;;;;21.34;41.51;99343.19;1464693;79;20970;-71
2022/06/17 14:15:50;;;;;;;1.30;1.20;;;;;;;21.34;41.52;99349.89;1467703;79;21018;-72
2022/06/17 14:17:54;;;;;;;1.75;1.17;;;;;;;21.31;41.83;99353.31;1464108;79;21015;-72
2022/06/17 14:19:59;;;;;;;6.12;1.30;;;;;;;21.31;42.05;99355.53;1467189;79;21069;-71
2022/06/17 14:22:01;;;;;;;4.30;1.32;;;;;;;21.33;42.14;99356.73;1468249;79;21064;-71
2022/06/17 14:24:03;;;;;;;3.65;0.90;;;;;;;21.31;42.38;99362.23;1468191;79;21024;-72
2022/06/17 14:26:04;;;;;;;2.25;1.00;;;;;;;21.26;42.27;99355.91;1445470;80;21041;-71
2022/06/17 14:28:09;;;;;;;1.42;1.07;;;;;;;21.19;41.93;99357.94;1466329;78;21006;-71
2022/06/17 14:30:16;;;;;;;8.85;1.15;;;;;;;21.11;42.00;99359.92;1463352;79;21484;-72
2022/06/17 14:32:21;;;;;;;6.12;1.10;;;;;;;21.04;42.24;99355.58;1468695;79;21013;-72
2022/06/17 14:34:45;;;;;;;5.67;1.05;;;;;;;21.00;42.21;99358.16;1462876;79;21014;-70
2022/06/17 14:36:51;;;;;;;2.22;1.05;;;;;;;20.99;42.30;99361.84;1466617;79;21553;-71
2022/06/17 14:38:58;;;;;;;2.37;1.30;;;;;;;21.00;42.59;99360.00;1468941;79;21502;-72
2022/06/17 14:43:30;;;;;;;1.30;1.20;;;;;;;20.92;42.74;99351.27;1464773;78;21072;-71
2022/06/17 14:45:34;;;;;;;11.55;1.42;;;;;;;20.89;42.86;99356.89;1466838;79;21050;-70
2022/06/17 14:47:45;;;;;;;8.40;1.20;;;;;;;20.88;42.92;99351.20;1466110;79;21104;-71
2022/06/17 14:49:58;;;;;;;1.57;1.20;;;;;;;20.88;42.93;99345.33;1463145;79;22265;-70
2022/06/17 14:52:02;;;;;;;2.25;1.20;;;;;;;20.90;43.11;99344.70;1466598;79;21025;-70
2022/06/17 14:54:13;;;;;;;5.20;1.35;;;;;;;20.95;43.23;99338.09;1464177;79;21552;-71
2022/06/17 14:56:18;;;;;;;3.22;1.70;;;;;;;21.01;43.44;99348.30;1464235;79;21009;-71
2022/06/17 14:58:19;;;;;;;3.20;1.20;;;;;;;21.05;43.35;99347.90;1452829;80;21030;-71
2022/06/17 15:00:21;;;;;;;4.12;1.32;;;;;;;21.07;43.27;99349.10;1454509;79;21179;-71
2022/06/17 15:02:26;;;;;;;1.37;1.17;;;;;;;21.06;43.10;99345.59;1451352;80;20986;-72
2022/06/17 15:04:39;;;;;;;4.53;1.57;;;;;;;21.06;43.22;99351.45;1444764;80;21012;-71
2022/06/17 15:06:43;;;;;;;1.87;1.20;;;;;;;21.03;43.29;99355.70;1445182;80;21578;-70
2022/06/17 15:08:48;;;;;;;4.25;1.32;;;;;;;21.01;43.39;99355.00;1442830;80;59657;-70
2022/06/17 15:11:07;;;;;;;2.12;1.50;;;;;;;20.96;43.10;99355.88;1441650;81;21738;-71
2022/06/17 15:15:41;;;;;;;2.77;1.40;;;;;;;20.89;43.32;99348.38;1414249;82;20998;-71
2022/06/17 15:17:45;;;;;;;2.20;1.32;;;;;;;20.86;43.45;99347.28;1412241;82;21045;-71
2022/06/17 15:19:49;;;;;;;1.37;1.20;;;;;;;20.84;43.48;99347.91;1414870;82;21087;-71
2022/06/17 15:21:57;;;;;;;2.67;1.62;;;;;;;20.80;43.58;99345.14;1414304;82;21024;-71
2022/06/17 15:24:07;;;;;;;3.42;1.25;;;;;;;20.74;43.60;99344.30;1414857;82;21056;-70
2022/06/17 15:26:15;;;;;;;3.27;1.42;;;;;;;20.73;43.82;99345.30;1412938;82;21017;-71
2022/06/17 15:28:41;;;;;;;5.42;1.60;;;;;;;20.70;43.80;99348.22;1414933;82;21011;-72
2022/06/17 15:30:44;;;;;;;4.10;1.30;;;;;;;20.68;43.84;99340.81;1415450;82;21040;-71
2022/06/17 15:32:48;;;;;;;1.67;1.57;;;;;;;20.68;43.90;99337.64;1414672;82;21034;-72
2022/06/17 15:34:50;;;;;;;10.65;1.37;;;;;;;20.70;43.97;99339.72;1409964;83;21297;-73
2022/06/17 15:36:54;;;;;;;6.03;1.42;;;;;;;20.72;44.00;99338.24;1411487;81;21318;-72
2022/06/17 15:39:16;;;;;;;6.37;1.40;;;;;;;20.77;44.03;99344.06;1409485;83;21130;-72
2022/06/17 15:41:32;;;;;;;9.18;1.57;;;;;;;20.79;43.91;99335.39;1364750;84;21607;-72
2022/06/17 15:43:34;;;;;;;10.90;1.72;;;;;;;20.83;43.95;99340.85;1360542;86;21011;-71
2022/06/17 15:45:38;;;;;;;3.98;1.55;;;;;;;20.84;43.93;99337.20;1360214;85;21602;-71
2022/06/17 15:47:55;;;;;;;2.67;1.50;;;;;;;20.87;44.04;99340.95;1359420;86;21101;-71
2022/06/17 15:49:59;;;;;;;6.35;1.65;;;;;;;20.90;43.99;99342.02;1376285;84;21271;-71
2022/06/17 15:52:23;;;;;;;3.20;1.82;;;;;;;20.95;43.99;99339.44;1400518;83;20994;-72
2022/06/17 15:54:26;;;;;;;5.87;1.60;;;;;;;20.99;44.02;99340.88;1402772;83;21566;-71
2022/06/17 15:56:31;;;;;;;2.90;1.57;;;;;;;21.03;43.79;99331.59;1400912;83;21096;-71
2022/06/17 15:58:38;;;;;;;4.35;1.32;;;;;;;21.07;43.76;99338.38;1401238;83;21106;-72
2022/06/17 16:00:39;;;;;;;6.00;1.70;;;;;;;21.11;43.89;99338.48;1400735;83;21021;-73
2022/06/17 16:02:44;;;;;;;5.35;1.12;;;;;;;21.09;43.85;99345.81;1400286;83;21043;-71
2022/06/17 16:04:45;;;;;;;5.03;1.67;;;;;;;21.02;43.88;99345.49;1345191;86;21887;-71
2022/06/17 16:07:06;;;;;;;7.37;1.55;;;;;;;20.95;43.86;99345.66;1344668;87;21014;-71
2022/06/17 16:09:28;;;;;;;7.05;1.65;;;;;;;20.89;44.06;99343.02;1373078;83;21061;-71
2022/06/17 16:11:35;;;;;;;3.72;1.75;;;;;;;20.85;44.10;99348.28;1357969;85;21307;-71
2022/06/17 16:13:40;;;;;;;3.35;1.65;;;;;;;20.79;44.19;99347.45;1326677;85;21621;-72
2022/06/17 16:15:56;;;;;;;4.70;1.70;;;;;;;20.74;44.35;99346.52;1319531;88;20987;-71
2022/06/17 16:18:10;;;;;;;6.80;1.85;;;;;;;20.73;44.52;99342.12;1343562;84;21055;-71
2022/06/17 16:20:20;;;;;;;3.77;1.35;;;;;;;20.74;44.60;99346.98;1382667;84;20988;-71
2022/06/17 16:22:27;;;;;;;3.30;1.67;;;;;;;20.72;44.60;99345.77;1384428;83;21545;-71
2022/06/17 16:24:34;;;;;;;4.78;1.40;;;;;;;20.76;44.75;99343.70;1393891;82;80719;-71
2022/06/17 16:26:42;;;;;;;2.98;1.80;;;;;;;20.79;44.74;99340.75;1418182;82;80730;-71
2022/06/17 16:28:44;;;;;;;4.33;1.87;;;;;;;20.87;44.78;99348.15;1422507;83;21076;-71
2022/06/17 16:30:56;;;;;;;2.22;1.57;;;;;;;20.91;44.93;99347.75;1421088;82;21055;-70
2022/06/17 16:33:27;;;;;;;6.97;1.65;;;;;;;20.96;44.86;99346.00;1421637;81;80604;-71
2022/06/17 16:35:56;;;;;;;2.62;1.85;;;;;;;21.02;44.78;99346.83;1422612;82;20969;-71
2022/06/17 16:37:57;;;;;;;3.17;1.80;;;;;;;21.06;44.81;99348.77;1372413;85;21695;-71
2022/06/17 16:43:59;;;;;;;1.95;1.67;;;;;;;21.07;44.94;99345.08;1373840;84;80726;-72
2022/06/17 16:44:42;;;;;;;4.72;1.60;;;;;;;20.99;44.77;99351.59;1374258;85;82304;-71
2022/06/17 16:46:52;;;;;;;1.57;1.47;;;;;;;20.95;44.87;99355.52;1375753;85;21580;-71
2022/06/17 16:48:56;;;;;;;2.15;1.30;;;;;;;20.90;44.95;99355.42;1376363;85;22200;-71
2022/06/17 16:50:57;;;;;;;2.12;1.90;;;;;;;20.87;45.07;99350.33;1373611;85;81984;-71
2022/06/17 16:53:00;;;;;;;2.00;1.40;;;;;;;20.92;45.07;99349.45;1375440;85;21066;-71
2022/06/17 16:55:03;;;;;;;3.30;1.60;;;;;;;20.95;45.01;99352.83;1374437;85;21554;-71
2022/06/17 16:57:08;;;;;;;6.95;1.92;;;;;;;21.00;45.27;99355.48;1376686;85;81207;-70
2022/06/17 16:59:11;;;;;;;7.42;1.75;;;;;;;21.03;45.23;99357.92;1395771;83;21024;-70
2022/06/17 17:01:12;;;;;;;5.60;2.02;;;;;;;21.00;45.26;99357.32;1394903;83;21670;-70
2022/06/17 17:03:15;;;;;;;4.33;1.47;;;;;;;20.99;45.45;99355.61;1402672;83;81452;-71
2022/06/17 17:05:17;;;;;;;3.75;1.72;;;;;;;20.95;45.29;99355.52;1409356;84;21121;-71
2022/06/17 17:07:20;;;;;;;7.22;1.98;;;;;;;20.86;45.40;99356.66;1418376;82;21033;-71
2022/06/17 17:09:21;;;;;;;5.37;1.87;;;;;;;20.79;45.51;99352.81;1407933;82;80783;-71
2022/06/17 17:11:23;;;;;;;13.75;1.90;;;;;;;20.71;45.54;99353.95;1408508;82;21002;-72
2022/06/17 17:13:24;;;;;;;8.98;2.22;;;;;;;20.62;45.51;99355.55;1398248;83;21012;-72
2022/06/17 17:15:25;;;;;;;4.28;1.92;;;;;;;20.54;45.62;99353.50;1436781;81;80793;-73
2022/06/17 17:17:26;;;;;;;2.40;1.77;;;;;;;20.47;45.81;99352.83;1489680;78;20966;-73
2022/06/17 17:19:30;;;;;;;4.30;1.90;;;;;;;20.40;45.97;99356.50;1485751;79;20943;-72
2022/06/17 17:21:33;;;;;;;3.98;2.10;;;;;;;20.35;46.14;99352.87;1486903;78;80648;-72
2022/06/17 17:23:38;;;;;;;5.05;1.82;;;;;;;20.32;46.24;99357.62;1490537;78;21549;-73
2022/06/17 17:25:43;;;;;;;11.15;2.58;;;;;;;20.27;46.31;99353.13;1489955;79;20996;-71
2022/06/17 17:27:44;;;;;;;8.83;2.60;;;;;;;20.21;46.41;99358.03;1487335;78;81781;-72
2022/06/17 17:29:47;;;;;;;5.85;2.70;;;;;;;20.18;46.45;99358.26;1487955;78;21146;-71
2022/06/17 17:31:48;;;;;;;10.93;2.77;;;;;;;20.12;46.49;99364.12;1489777;78;21006;-72
2022/06/17 17:33:49;;;;;;;8.18;2.65;;;;;;;20.08;46.54;99364.86;1488972;78;81531;-72
2022/06/17 17:35:51;;;;;;;6.85;2.72;;;;;;;20.03;46.60;99367.55;1489254;78;21146;-72
2022/06/17 17:37:55;;;;;;;8.98;2.40;;;;;;;19.99;46.63;99368.77;1490075;79;21013;-72
2022/06/17 17:39:56;;;;;;;14.58;2.50;;;;;;;19.96;46.83;99363.67;1471235;78;81445;-72
2022/06/17 17:41:59;;;;;;;16.05;3.10;;;;;;;19.92;46.78;99364.90;1482155;78;22075;-71
2022/06/17 17:44:03;;;;;;;6.55;2.50;;;;;;;19.88;46.92;99367.83;1489929;78;20978;-72
2022/06/17 17:46:04;;;;;;;6.85;2.50;;;;;;;19.85;47.07;99367.22;1512033;77;81840;-72
2022/06/17 17:48:08;;;;;;;10.58;2.80;;;;;;;19.80;47.04;99367.59;1494726;78;21289;-72
2022/06/17 17:50:13;;;;;;;5.03;3.15;;;;;;;19.78;47.20;99366.82;1479404;79;21007;-71
2022/06/17 17:52:14;;;;;;;3.67;3.00;;;;;;;19.74;47.32;99364.03;1479741;78;80440;-72
2022/06/17 17:54:19;;;;;;;14.78;3.17;;;;;;;19.70;47.36;99363.91;1480273;79;21023;-71
2022/06/17 17:56:20;;;;;;;7.55;3.20;;;;;;;19.66;47.44;99372.69;1479878;79;21138;-72
2022/06/17 17:58:22;;;;;;;4.55;2.17;;;;;;;19.61;47.56;99369.52;1479501;79;80589;-72
2022/06/17 18:00:36;;;;;;;7.90;2.30;;;;;;;19.57;47.61;99370.73;1462235;80;20985;-71
2022/06/17 18:02:38;;;;;;;7.03;2.45;;;;;;;19.54;47.77;99373.16;1431473;81;21135;-73
2022/06/17 18:04:40;;;;;;;5.20;2.12;;;;;;;19.51;47.84;99375.24;1456160;80;81276;-71
2022/06/17 18:06:42;;;;;;;7.62;2.20;;;;;;;19.49;48.00;99377.17;1434449;81;21066;-71
2022/06/17 18:08:45;;;;;;;6.15;2.25;;;;;;;19.45;47.98;99373.88;1407720;83;80735;-71
2022/06/17 18:10:49;;;;;;;5.70;2.58;;;;;;;19.40;48.13;99374.25;1482688;79;21067;-72
2022/06/17 18:12:53;;;;;;;6.17;2.50;;;;;;;19.36;48.27;99372.79;1432368;81;21020;-72
2022/06/17 18:14:54;;;;;;;7.10;2.60;;;;;;;19.33;48.51;99374.88;1456474;80;81523;-72
2022/06/17 18:16:56;;;;;;;7.55;2.37;;;;;;;19.26;48.71;99373.16;1459458;80;21512;-72
2022/06/17 18:18:59;;;;;;;12.03;2.60;;;;;;;19.22;48.87;99371.70;1455132;81;21029;-72
2022/06/17 18:21:02;;;;;;;6.58;2.47;;;;;;;19.15;49.09;99371.31;1431163;81;80873;-71
2022/06/17 18:23:10;;;;;;;25.85;3.00;;;;;;;19.08;49.15;99376.78;1458204;81;21019;-72
2022/06/17 18:25:12;;;;;;;7.42;2.67;;;;;;;19.03;49.26;99374.94;1458412;80;21149;-72
2022/06/17 18:27:17;;;;;;;9.70;2.60;;;;;;;18.98;49.46;99378.44;1456934;80;81854;-72
2022/06/17 18:29:23;;;;;;;11.33;2.75;;;;;;;18.92;49.50;99377.59;1457887;80;21067;-72
2022/06/17 18:31:25;;;;;;;7.03;2.70;;;;;;;18.84;49.67;99379.00;1452142;80;21130;-71
2022/06/17 18:33:28;;;;;;;9.08;2.80;;;;;;;18.77;49.79;99384.91;1477176;79;80471;-72
2022/06/17 18:35:32;;;;;;;9.40;2.87;;;;;;;18.71;49.88;99382.22;1479245;79;21007;-71
2022/06/17 18:37:36;;;;;;;13.25;2.87;;;;;;;18.64;49.97;99395.67;1480315;79;20988;-73
2022/06/17 18:39:36;;;;;;;14.45;3.60;;;;;;;18.55;50.08;99391.39;1453642;80;80741;-71
2022/06/17 18:43:58;;;;;;;10.03;4.03;;;;;;;18.39;50.54;99386.83;1479077;79;21046;-72
2022/06/17 18:45:59;;;;;;;7.95;3.22;;;;;;;18.30;50.56;99386.16;1478626;79;81551;-72
2022/06/17 18:48:03;;;;;;;10.15;3.45;;;;;;;18.23;50.71;99395.59;1478900;79;21601;-72
2022/06/17 18:50:08;;;;;;;5.17;4.15;;;;;;;18.14;50.82;99395.30;1458999;80;21043;-72
2022/06/17 18:52:15;;;;;;;16.85;5.33;;;;;;;18.06;51.10;99397.67;1422135;81;80756;-72
2022/06/17 18:54:19;;;;;;;8.38;5.15;;;;;;;17.97;51.31;99397.86;1453202;80;21045;-72
2022/06/17 18:56:20;;;;;;;6.70;5.05;;;;;;;17.90;51.50;99401.03;1479871;79;21079;-71
2022/06/17 18:58:21;;;;;;;18.00;5.90;;;;;;;17.82;51.60;99405.11;1474334;79;80545;-72
2022/06/17 19:00:24;;;;;;;12.10;5.40;;;;;;;17.76;51.76;99414.86;1463122;79;21045;-71
2022/06/17 19:02:31;;;;;;;11.68;5.22;;;;;;;17.68;51.83;99414.55;1461001;79;21004;-71
2022/06/17 19:04:32;;;;;;;15.23;4.78;;;;;;;17.61;51.81;99413.29;1459582;79;82220;-71
2022/06/17 19:06:33;;;;;;;9.20;4.10;;;;;;;17.53;52.06;99417.35;1463049;80;21000;-71
2022/06/17 19:17:53;;;;;;;8.60;3.95;;;;;;;17.15;52.72;99420.00;1461972;79;20996;-71
2022/06/17 19:19:58;;;;;;;10.35;4.25;;;;;;;17.06;52.85;99421.95;1462425;79;21000;-71
2022/06/17 19:22:01;;;;;;;7.97;4.05;;;;;;;16.99;52.98;99426.88;1460474;80;82303;-72
2022/06/17 19:24:03;;;;;;;6.62;4.10;;;;;;;16.91;53.05;99430.53;1462803;79;21113;-71
2022/06/17 19:26:05;;;;;;;8.95;3.90;;;;;;;16.83;53.17;99429.17;1465288;80;21039;-71
2022/06/17 19:28:08;;;;;;;12.65;4.37;;;;;;;16.78;53.20;99435.30;1458365;80;80612;-72
2022/06/17 19:30:11;;;;;;;10.60;3.80;;;;;;;16.72;53.34;99435.70;1462388;80;21571;-71
2022/06/17 19:32:18;;;;;;;19.45;5.15;;;;;;;16.65;53.70;99437.91;1463974;81;20989;-71
2022/06/17 19:34:26;;;;;;;21.82;5.40;;;;;;;16.56;53.96;99437.66;1461500;80;80750;-71
2022/06/17 19:36:28;;;;;;;23.73;5.08;;;;;;;16.46;54.15;99444.94;1463748;80;21370;-72
2022/06/17 19:38:37;;;;;;;19.95;4.78;;;;;;;16.36;54.43;99450.46;1463085;81;21066;-73
2022/06/17 19:40:38;;;;;;;28.80;5.20;;;;;;;16.25;54.66;99448.98;1461392;79;80566;-71
2022/06/17 19:42:39;;;;;;;16.87;5.00;;;;;;;16.15;54.90;99452.22;1464029;79;21070;-73
2022/06/17 19:44:40;;;;;;;;;;;;;;;16.10;55.07;99449.02;1467685;79;21066;-71
2022/06/17 19:47:03;;;;;;;16.62;5.72;;;;;;;16.07;55.72;99450.52;1462147;79;66945;-71
2022/06/17 19:49:05;;;;;;;13.90;7.30;;;;;;;16.02;55.61;99453.97;1464925;80;21069;-71
2022/06/17 19:51:09;;;;;;;18.60;7.90;;;;;;;15.97;55.74;99461.38;1461031;80;81542;-73
2022/06/17 19:53:13;;;;;;;20.48;8.60;;;;;;;15.91;55.93;99455.09;1464406;80;21074;-71
2022/06/17 19:55:20;;;;;;;16.35;8.78;;;;;;;15.83;56.07;99453.77;1464867;80;21078;-71
2022/06/17 19:57:22;;;;;;;28.27;9.15;;;;;;;15.77;56.26;99459.91;1462821;80;81468;-72
2022/06/17 19:59:23;;;;;;;29.65;9.10;;;;;;;15.69;56.44;99463.52;1446659;80;21063;-71
2022/06/17 20:01:30;;;;;;;20.17;8.53;;;;;;;15.59;56.61;99452.59;1417197;83;21057;-71
2022/06/17 20:03:33;;;;;;;25.62;8.65;;;;;;;15.61;56.73;99460.02;1441628;80;81185;-71
2022/06/17 20:05:34;;;;;;;14.07;7.60;;;;;;;15.49;56.91;99449.20;1444024;81;21045;-72
2022/06/17 20:07:35;;;;;;;14.05;7.42;;;;;;;15.45;57.01;99460.95;1444052;81;21080;-70
2022/06/17 20:09:37;;;;;;;13.10;7.87;;;;;;;15.35;57.18;99463.77;1440780;81;80712;-74
2022/06/17 20:11:38;;;;;;;17.40;8.18;;;;;;;15.35;57.18;99463.77;1442021;81;21043;-71
2022/06/17 20:13:38;;;;;;;;;;;;;;;15.32;57.49;99466.62;1447480;81;21036;-71
2022/06/17 20:15:39;;;;;;;18.35;7.33;;;;;;;15.26;57.90;99470.98;1440725;80;66969;-72
2022/06/17 20:17:40;;;;;;;;;;;;;;;15.20;57.84;99468.67;1446154;81;21086;-70
2022/06/17 20:19:43;;;;;;;13.75;6.80;;;;;;;15.15;58.29;99469.80;1442434;81;20155;-71
2022/06/17 20:21:46;;;;;;;17.48;7.25;;;;;;;15.10;58.14;99469.21;1441891;81;80716;-71
2022/06/17 20:23:47;;;;;;;21.30;7.78;;;;;;;15.06;58.44;99469.49;1441985;81;21018;-71
2022/06/17 20:25:48;;;;;;;20.52;7.53;;;;;;;15.06;58.44;99469.49;1424242;82;21048;-71
2022/06/17 20:27:49;;;;;;;;;;;;;;;15.03;58.42;99467.87;1442911;81;80618;-71
2022/06/17 20:29:50;;;;;;;19.07;8.10;;;;;;;15.00;58.89;99470.71;1444042;81;20157;-71
2022/06/17 20:31:51;;;;;;;17.05;7.67;;;;;;;14.96;58.74;99472.68;1441566;81;21083;-71
2022/06/17 20:33:53;;;;;;;19.25;8.63;;;;;;;14.92;58.72;99470.30;1425744;82;81483;-72
2022/06/17 20:35:54;;;;;;;28.25;8.70;;;;;;;14.89;58.84;99473.14;1442928;81;21653;-71
2022/06/17 20:37:56;;;;;;;;;;;;;;;14.83;59.01;99465.52;1445939;81;22192;-71
2022/06/17 20:39:58;;;;;;;31.55;16.02;;;;;;;14.84;59.32;99472.55;1440395;80;67208;-70
2022/06/17 20:42:04;;;;;;;29.63;18.80;;;;;;;14.77;59.20;99472.92;1444479;81;21004;-70
2022/06/17 20:44:13;;;;;;;20.72;10.78;;;;;;;14.75;59.31;99473.46;1440914;81;21059;-71
2022/06/17 20:50:55;;;;;;;16.60;8.15;;;;;;;14.64;59.54;99478.05;1441203;81;80840;-71
2022/06/17 20:52:56;;;;;;;17.70;7.37;;;;;;;14.61;59.59;99480.01;1443632;81;21025;-71
2022/06/17 20:54:58;;;;;;;;;;;;;;;14.57;59.77;99479.31;1444847;81;21033;-70
2022/06/17 20:59:13;;;;;;;15.00;7.33;;;;;;;14.50;60.01;99482.42;1420756;81;21819;-69
2022/06/17 21:01:15;;;;;;;;;;;;;;;14.43;60.01;99488.05;1435182;81;21074;-70
2022/06/17 21:03:21;;;;;;;19.67;7.92;;;;;;;14.39;60.38;99475.91;1432718;81;68248;-70
2022/06/17 21:05:24;;;;;;;10.23;7.40;;;;;;;14.35;60.20;99482.32;1411179;82;21007;-72
2022/06/17 21:07:25;;;;;;;9.73;7.25;;;;;;;14.30;60.21;99481.71;1385500;84;20995;-71
2022/06/17 21:09:36;;;;;;;;;;;;;;;14.24;60.19;99483.39;1410426;82;81233;-71
2022/06/17 21:11:29;;;;;;;13.93;6.95;;;;;;;14.19;60.55;99482.33;1396010;83;21086;-71
2022/06/17 21:13:33;;;;;;;15.43;8.18;;;;;;;14.12;60.46;99481.80;1399326;83;21043;-71
2022/06/17 21:15:34;;;;;;;10.40;7.25;;;;;;;14.09;60.56;99489.06;1397793;83;81714;-70
2022/06/17 21:17:35;;;;;;;11.88;7.62;;;;;;;14.05;60.64;99488.84;1399872;83;21139;-71
2022/06/17 21:19:37;;;;;;;;;;;;;;;14.02;60.84;99487.69;1403213;83;21041;-70
2022/06/17 21:21:38;;;;;;;16.95;7.50;;;;;;;13.98;61.26;99485.66;1375880;85;67046;-70
2022/06/17 21:23:39;;;;;;;14.70;7.92;;;;;;;13.96;61.08;99492.85;1410916;82;21268;-70
2022/06/17 21:25:40;;;;;;;20.08;6.58;;;;;;;13.93;61.09;99489.05;1399238;83;21080;-70
2022/06/17 21:27:41;;;;;;;;;;;;;;;13.91;61.28;99486.94;1402127;83;80926;-70
2022/06/17 21:29:43;;;;;;;9.40;6.30;;;;;;;13.90;61.61;99486.54;1398911;83;20190;-70
2022/06/17 21:31:44;;;;;;;12.82;6.42;;;;;;;13.86;61.46;99481.02;1409473;83;21050;-70
2022/06/17 21:33:45;;;;;;;;;;;;;;;13.82;61.50;99486.97;1413215;82;80855;-69
2022/06/17 21:35:48;;;;;;;9.23;5.67;;;;;;;13.80;61.92;99483.53;1421263;81;20151;-70
2022/06/17 21:37:55;;;;;;;12.98;5.90;;;;;;;13.77;61.78;99473.95;1430092;81;21012;-69
2022/06/17 21:39:56;;;;;;;8.98;5.50;;;;;;;13.75;61.74;99476.32;1430170;83;80670;-71
2022/06/17 21:42:00;;;;;;;14.78;5.78;;;;;;;13.71;61.79;99479.59;1453818;81;20986;-70
2022/06/17 21:44:01;;;;;;;20.70;5.67;;;;;;;13.66;61.83;99474.99;1452627;80;21059;-69
2022/06/17 21:46:05;;;;;;;17.10;6.35;;;;;;;13.63;61.92;99474.69;1436000;81;81957;-70
2022/06/17 21:48:07;;;;;;;9.78;5.37;;;;;;;13.61;61.99;99487.65;1450296;80;21080;-70
2022/06/17 21:50:10;;;;;;;12.10;5.30;;;;;;;13.58;62.01;99479.84;1464107;80;21291;-69
2022/06/17 21:52:17;;;;;;;10.63;6.35;;;;;;;13.53;62.07;99478.77;1476922;79;81628;-69
2022/06/17 21:54:24;;;;;;;18.60;5.75;;;;;;;13.48;62.16;99480.79;1478167;79;21211;-70
2022/06/17 21:56:27;;;;;;;10.32;6.22;;;;;;;13.43;62.25;99477.52;1478680;79;21524;-70
2022/06/17 21:58:32;;;;;;;8.20;5.60;;;;;;;13.39;62.46;99482.13;1477462;79;81401;-69
2022/06/17 22:00:35;;;;;;;13.35;5.90;;;;;;;13.37;62.44;99481.34;1462317;80;20993;-69
2022/06/17 22:02:36;;;;;;;10.85;6.12;;;;;;;13.34;62.49;99481.48;1463505;79;21007;-70
2022/06/17 22:04:38;;;;;;;8.48;5.70;;;;;;;13.27;62.58;99483.58;1460702;80;81616;-69
2022/06/17 22:06:38;;;;;;;;;;;;;;;13.21;62.67;99489.64;1464438;79;21069;-70
2022/06/17 22:08:42;;;;;;;18.73;7.00;;;;;;;13.14;63.05;99487.80;1463270;81;20116;-70
2022/06/17 22:10:44;;;;;;;14.87;7.03;;;;;;;13.06;62.97;99491.30;1461724;79;80584;-69
2022/06/17 22:12:45;;;;;;;16.30;6.30;;;;;;;13.00;63.03;99488.50;1462765;80;21040;-69
2022/06/17 22:14:48;;;;;;;8.35;6.00;;;;;;;12.92;63.44;99490.67;1477723;79;21610;-69
2022/06/17 22:16:49;;;;;;;14.95;5.87;;;;;;;12.92;63.44;99490.67;1475876;79;21051;-69
2022/06/17 22:18:50;;;;;;;10.65;6.25;;;;;;;12.90;63.29;99493.39;1476806;79;21029;-69
2022/06/17 22:20:53;;;;;;;;;;;;;;;12.89;63.33;99493.44;1478868;79;81787;-69
2022/06/17 22:22:54;;;;;;;14.85;6.95;;;;;;;12.88;63.73;99491.75;1475992;79;20505;-69
2022/06/17 22:24:56;;;;;;;23.55;7.47;;;;;;;12.87;63.53;99486.91;1477854;79;21094;-69
2022/06/17 22:26:58;;;;;;;15.32;6.17;;;;;;;12.87;63.51;99491.35;1476080;79;91573;-70
2022/06/17 22:28:59;;;;;;;14.47;5.80;;;;;;;12.86;63.56;99491.83;1475767;79;21028;-70
2022/06/17 22:31:00;;;;;;;13.78;6.33;;;;;;;12.87;63.72;99497.97;1473793;79;20995;-70
2022/06/17 22:33:01;;;;;;;9.70;6.72;;;;;;;12.86;63.73;99496.25;1475816;79;82165;-70
2022/06/17 22:35:06;;;;;;;15.85;7.05;;;;;;;12.85;63.80;99500.70;1477383;79;21050;-70
2022/06/17 22:37:12;;;;;;;8.50;6.62;;;;;;;12.85;63.88;99493.20;1474500;79;21099;-70
2022/06/17 22:39:16;;;;;;;14.15;7.03;;;;;;;12.86;64.01;99492.28;1474651;79;81990;-69
2022/06/17 22:41:16;;;;;;;13.95;7.37;;;;;;;12.87;64.04;99492.67;1477153;79;21037;-70
2022/06/17 22:43:18;;;;;;;18.07;7.42;;;;;;;12.89;64.18;99494.77;1473865;79;21545;-70
2022/06/17 22:45:20;;;;;;;11.95;7.33;;;;;;;12.91;64.25;99492.44;1475023;79;81929;-70
2022/06/17 22:47:27;;;;;;;15.68;8.00;;;;;;;12.95;64.39;99494.00;1476346;79;21080;-69
2022/06/17 22:49:28;;;;;;;15.05;8.13;;;;;;;12.99;64.40;99500.45;1475405;79;21506;-70
2022/06/17 22:51:29;;;;;;;12.75;8.10;;;;;;;13.03;64.49;99494.95;1476161;79;81364;-70
2022/06/17 22:53:40;;;;;;;13.50;8.25;;;;;;;13.06;64.59;99492.15;1476273;79;21028;-70
2022/06/17 22:55:42;;;;;;;15.05;8.60;;;;;;;13.11;64.57;99495.88;1477213;79;21531;-70
2022/06/17 22:57:43;;;;;;;13.43;8.05;;;;;;;13.13;64.70;99493.18;1473446;78;82062;-70
2022/06/17 22:59:44;;;;;;;13.58;8.15;;;;;;;13.19;64.68;99493.70;1480945;79;21010;-70
2022/06/17 23:01:46;;;;;;;14.23;7.72;;;;;;;13.24;64.74;99494.81;1488266;78;21030;-70
2022/06/17 23:06:12;;;;;;;12.43;7.92;;;;;;;13.31;64.77;99491.39;1486795;79;21521;-69
2022/06/17 23:08:14;;;;;;;13.08;8.55;;;;;;;13.34;64.83;99492.06;1488024;78;21516;-70
2022/06/17 23:10:19;;;;;;;15.85;9.43;;;;;;;13.39;64.84;99492.72;1485013;78;81667;-69
2022/06/17 23:12:20;;;;;;;26.05;9.55;;;;;;;13.43;64.91;99498.25;1487624;78;21036;-70
2022/06/17 23:14:21;;;;;;;15.88;7.60;;;;;;;13.51;64.94;99500.97;1487283;79;21014;-70
2022/06/17 23:16:23;;;;;;;8.65;7.75;;;;;;;13.54;64.97;99505.64;1485327;78;81372;-70